createdAt,value
2024-02-28T00:01:52.476Z,75.73
2024-02-28T00:04:20.129Z,75.63
2024-02-28T00:06:47.779Z,75.58
2024-02-28T00:09:15.489Z,75.51
2024-02-28T00:11:43.109Z,75.71
2024-02-28T00:14:11.088Z,75.75
2024-02-28T00:16:38.740Z,75.93
2024-02-28T00:19:06.303Z,75.76
2024-02-28T00:21:33.881Z,75.94
2024-02-28T00:24:01.415Z,76.27
2024-02-28T00:26:30.910Z,76.52
2024-02-28T00:28:59.817Z,76.70
2024-02-28T00:31:27.476Z,76.67
2024-02-28T00:33:55.071Z,76.45
2024-02-28T00:36:23.103Z,76.40
2024-02-28T00:38:50.765Z,76.64
2024-02-28T00:41:18.225Z,76.89
2024-02-28T00:43:45.886Z,76.73
2024-02-28T00:46:13.710Z,76.77
2024-02-28T00:48:41.564Z,76.80
2024-02-28T00:51:09.188Z,76.80
2024-02-28T00:53:37.143Z,76.57
2024-02-28T00:56:04.713Z,76.33
2024-02-28T00:58:32.259Z,76.55
2024-02-28T01:00:59.963Z,76.48
2024-02-28T01:03:27.613Z,76.49
2024-02-28T01:05:55.343Z,76.34
2024-02-28T01:08:22.902Z,76.51
2024-02-28T01:10:50.574Z,76.41
2024-02-28T01:13:18.430Z,76.50
2024-02-28T01:15:46.090Z,76.59
2024-02-28T01:18:13.978Z,76.95
2024-02-28T01:20:41.624Z,76.99
2024-02-28T01:23:09.277Z,77.01
2024-02-28T01:25:36.841Z,76.82
2024-02-28T01:28:04.501Z,76.92
2024-02-28T01:30:32.099Z,77.07
2024-02-28T01:32:59.678Z,77.06
2024-02-28T01:35:27.696Z,77.10
2024-02-28T01:37:55.360Z,77.01
2024-02-28T01:40:23.015Z,77.02
2024-02-28T01:42:50.770Z,77.15
2024-02-28T01:45:18.478Z,77.27
2024-02-28T01:47:46.010Z,77.27
2024-02-28T01:50:13.685Z,77.34
2024-02-28T01:52:41.732Z,77.34
2024-02-28T01:55:09.395Z,77.12
2024-02-28T01:57:37.097Z,77.13
2024-02-28T02:00:04.843Z,77.11
2024-02-28T02:02:32.483Z,77.27
2024-02-28T02:05:00.071Z,77.46
2024-02-28T02:07:27.599Z,77.52
2024-02-28T02:09:55.216Z,77.65
2024-02-28T02:12:22.936Z,77.73
2024-02-28T02:14:50.591Z,77.56
2024-02-28T02:17:18.465Z,77.57
2024-02-28T02:19:46.154Z,77.49
2024-02-28T02:22:13.869Z,77.44
2024-02-28T02:24:41.477Z,77.22
2024-02-28T02:27:09.092Z,77.44
2024-02-28T02:29:36.646Z,77.51
2024-02-28T02:32:04.222Z,77.41
2024-02-28T02:34:31.881Z,77.58
2024-02-28T02:36:59.502Z,77.51
2024-02-28T02:39:27.265Z,77.50
2024-02-28T02:41:55.164Z,77.45
2024-02-28T02:44:22.826Z,77.40
2024-02-28T02:46:50.378Z,77.43
2024-02-28T02:49:18.051Z,77.47
2024-02-28T02:51:45.631Z,77.61
2024-02-28T02:54:13.400Z,77.68
2024-02-28T02:56:41.134Z,77.51
2024-02-28T02:59:08.692Z,77.46
2024-02-28T03:01:36.265Z,77.59
2024-02-28T03:04:04.218Z,77.45
2024-02-28T03:06:31.892Z,77.48
2024-02-28T03:08:59.438Z,77.52
2024-02-28T03:11:27.164Z,77.63
2024-02-28T03:13:54.772Z,77.69
2024-02-28T03:16:22.323Z,77.53
2024-02-28T03:18:49.916Z,77.79
2024-02-28T03:21:17.546Z,77.79
2024-02-28T03:23:45.098Z,77.85
2024-02-28T03:26:13.060Z,77.75
2024-02-28T03:28:40.624Z,77.76
2024-02-28T03:31:08.181Z,77.78
2024-02-28T03:33:35.879Z,77.83
2024-02-28T03:36:03.510Z,77.91
2024-02-28T03:38:31.070Z,77.87
2024-02-28T03:40:58.726Z,77.86
2024-02-28T03:43:26.289Z,77.94
2024-02-28T03:45:54.266Z,77.85
2024-02-28T03:48:21.895Z,77.80
2024-02-28T03:50:49.775Z,77.93
2024-02-28T03:53:17.342Z,77.94
2024-02-28T03:55:44.905Z,77.85
2024-02-28T03:58:12.458Z,78.03
2024-02-28T04:00:40.112Z,77.99
2024-02-28T04:03:07.883Z,78.06
2024-02-28T04:05:35.855Z,78.16
2024-02-28T04:08:03.413Z,78.19
2024-02-28T04:10:30.981Z,78.22
2024-02-28T04:12:58.707Z,78.14
2024-02-28T04:15:26.421Z,78.06
2024-02-28T04:17:54.197Z,78.11
2024-02-28T04:20:21.711Z,78.21
2024-02-28T04:22:49.282Z,78.19
2024-02-28T04:25:16.937Z,78.32
2024-02-28T04:27:44.530Z,78.41
2024-02-28T04:30:12.261Z,78.37
2024-02-28T04:32:39.864Z,78.46
2024-02-28T04:35:07.489Z,78.31
2024-02-28T04:37:35.038Z,78.31
2024-02-28T04:40:02.671Z,78.38
2024-02-28T04:42:30.387Z,78.43
2024-02-28T04:44:58.015Z,78.54
2024-02-28T04:47:30.084Z,78.57
2024-02-28T04:50:04.808Z,78.46
2024-02-28T04:52:32.372Z,78.60
2024-02-28T04:55:00.083Z,78.74
2024-02-28T04:57:27.568Z,78.46
2024-02-28T04:59:55.352Z,78.67
2024-02-28T05:02:22.931Z,78.70
2024-02-28T05:04:50.504Z,78.63
2024-02-28T05:07:18.148Z,78.61
2024-02-28T05:09:46.141Z,78.61
2024-02-28T05:12:13.906Z,78.71
2024-02-28T05:14:41.543Z,78.69
2024-02-28T05:17:09.086Z,78.85
2024-02-28T05:19:36.648Z,78.79
2024-02-28T05:22:04.351Z,78.88
2024-02-28T05:24:31.994Z,78.87
2024-02-28T05:26:59.547Z,79.04
2024-02-28T05:29:27.196Z,79.12
2024-02-28T05:31:55.053Z,78.98
2024-02-28T05:34:22.618Z,79.08
2024-02-28T05:36:50.208Z,78.88
2024-02-28T05:39:17.899Z,78.94
2024-02-28T05:41:45.618Z,78.94
2024-02-28T05:44:13.265Z,79.17
2024-02-28T05:46:40.930Z,79.24
2024-02-28T05:49:08.484Z,79.22
2024-02-28T05:51:36.494Z,79.20
2024-02-28T05:54:04.112Z,79.03
2024-02-28T05:56:31.782Z,79.21
2024-02-28T05:58:59.331Z,79.17
2024-02-28T06:01:27.018Z,79.03
2024-02-28T06:03:54.720Z,79.03
2024-02-28T06:06:22.538Z,79.01
2024-02-28T06:08:50.193Z,79.05
2024-02-28T06:11:17.775Z,78.96
2024-02-28T06:13:45.707Z,78.91
2024-02-28T06:16:13.374Z,78.97
2024-02-28T06:18:41.054Z,78.86
2024-02-28T06:21:08.694Z,78.74
2024-02-28T06:23:36.366Z,78.67
2024-02-28T06:26:04.018Z,78.45
2024-02-28T06:28:31.584Z,78.29
2024-02-28T06:30:59.414Z,78.32
2024-02-28T06:33:27.263Z,78.23
2024-02-28T06:35:55.384Z,78.23
2024-02-28T06:38:22.992Z,78.26
2024-02-28T06:40:50.722Z,78.45
2024-02-28T06:43:18.362Z,78.46
2024-02-28T06:45:45.951Z,78.30
2024-02-28T06:48:13.729Z,78.39
2024-02-28T06:50:41.349Z,78.30
2024-02-28T06:53:09.321Z,78.12
2024-02-28T06:55:36.871Z,78.14
2024-02-28T06:58:04.679Z,78.14
2024-02-28T07:00:32.237Z,78.15
2024-02-28T07:02:59.853Z,78.10
2024-02-28T07:05:27.414Z,77.87
2024-02-28T07:07:55.065Z,77.97
2024-02-28T07:10:22.727Z,78.02
2024-02-28T07:12:50.342Z,77.64
2024-02-28T07:15:18.517Z,77.60
2024-02-28T07:17:46.164Z,77.43
2024-02-28T07:20:13.787Z,77.07
2024-02-28T07:22:41.365Z,77.13
2024-02-28T07:25:09.109Z,77.23
2024-02-28T07:27:36.796Z,76.93
2024-02-28T07:30:04.433Z,76.94
2024-02-28T07:32:31.994Z,76.88
2024-02-28T07:34:59.653Z,76.92
2024-02-28T07:37:27.127Z,76.77
2024-02-28T07:39:54.971Z,76.80
2024-02-28T07:42:22.673Z,76.75
2024-02-28T07:44:50.400Z,76.68
2024-02-28T07:47:17.968Z,76.60
2024-02-28T07:49:45.624Z,76.35
2024-02-28T07:52:13.183Z,76.45
2024-02-28T07:54:40.884Z,76.44
2024-02-28T07:57:08.607Z,76.55
2024-02-28T07:59:36.169Z,76.44
2024-02-28T08:02:03.932Z,76.32
2024-02-28T08:04:31.690Z,76.28
2024-02-28T08:06:59.507Z,76.15
2024-02-28T08:09:27.068Z,75.81
2024-02-28T08:11:54.804Z,75.62
2024-02-28T08:14:22.342Z,75.41
2024-02-28T08:16:50.002Z,75.33
2024-02-28T08:19:17.970Z,75.39
2024-02-28T08:21:45.613Z,75.29
2024-02-28T08:24:13.291Z,75.38
2024-02-28T08:26:40.947Z,75.38
2024-02-28T08:29:08.405Z,75.27
2024-02-28T08:31:35.971Z,75.17
2024-02-28T08:34:03.613Z,75.14
2024-02-28T08:36:31.434Z,74.82
2024-02-28T08:38:59.049Z,74.69
2024-02-28T08:41:26.712Z,75.01
2024-02-28T08:43:54.274Z,75.07
2024-02-28T08:46:21.847Z,75.11
2024-02-28T08:48:49.524Z,75.15
2024-02-28T08:51:17.171Z,74.85
2024-02-28T08:53:44.818Z,74.82
2024-02-28T08:56:12.401Z,74.94
2024-02-28T08:58:40.469Z,74.73
2024-02-28T09:01:08.105Z,74.38
2024-02-28T09:03:35.901Z,74.55
2024-02-28T09:06:03.529Z,74.43
2024-02-28T09:08:31.101Z,74.52
2024-02-28T09:10:58.765Z,74.56
2024-02-28T09:13:26.414Z,74.79
2024-02-28T09:15:55.688Z,74.32
2024-02-28T09:18:23.599Z,73.89
2024-02-28T09:20:51.549Z,74.04
2024-02-28T09:23:19.223Z,74.34
2024-02-28T09:25:46.779Z,74.13
2024-02-28T09:28:14.425Z,73.91
2024-02-28T09:30:46.428Z,73.84
2024-02-28T09:33:20.732Z,73.89
2024-02-28T09:35:48.576Z,73.88
2024-02-28T09:38:16.141Z,73.83
2024-02-28T09:40:43.794Z,73.74
2024-02-28T09:43:11.543Z,73.79
2024-02-28T09:45:39.245Z,73.76
2024-02-28T09:48:06.919Z,73.66
2024-02-28T09:50:34.556Z,73.18
2024-02-28T09:53:09.906Z,72.76
2024-02-28T09:55:38.779Z,73.03
2024-02-28T09:58:06.677Z,73.05
2024-02-28T10:00:34.560Z,73.27
2024-02-28T10:03:02.413Z,73.37
2024-02-28T10:05:30.401Z,73.76
2024-02-28T10:07:58.104Z,73.57
2024-02-28T10:10:25.767Z,73.68
2024-02-28T10:12:53.381Z,73.18
2024-02-28T10:15:21.138Z,72.73
2024-02-28T10:17:48.769Z,73.02
2024-02-28T10:20:16.717Z,73.05
2024-02-28T10:22:44.278Z,72.73
2024-02-28T10:25:12.001Z,72.61
2024-02-28T10:27:39.660Z,72.74
2024-02-28T10:30:07.382Z,72.85
2024-02-28T10:32:35.151Z,72.98
2024-02-28T10:35:02.779Z,72.68
2024-02-28T10:37:30.148Z,72.94
2024-02-28T10:39:57.829Z,72.90
2024-02-28T10:42:25.906Z,72.78
2024-02-28T10:45:00.977Z,73.01
2024-02-28T10:47:34.941Z,73.15
2024-02-28T10:50:02.590Z,73.12
2024-02-28T10:52:30.243Z,73.25
2024-02-28T10:54:57.874Z,72.75
2024-02-28T10:57:25.393Z,72.64
2024-02-28T10:59:53.019Z,72.71
2024-02-28T11:02:20.681Z,72.41
2024-02-28T11:04:48.550Z,72.51
2024-02-28T11:07:16.212Z,72.22
2024-02-28T11:09:43.809Z,72.15
2024-02-28T11:12:11.530Z,72.56
2024-02-28T11:14:39.089Z,72.45
2024-02-28T11:17:06.937Z,72.34
2024-02-28T11:19:35.885Z,72.64
2024-02-28T11:22:04.246Z,72.67
2024-02-28T11:24:32.030Z,73.05
2024-02-28T11:26:59.862Z,72.77
2024-02-28T11:29:27.514Z,72.90
2024-02-28T11:31:55.081Z,73.00
2024-02-28T11:34:22.791Z,73.07
2024-02-28T11:36:50.525Z,73.25
2024-02-28T11:39:18.266Z,73.30
2024-02-28T11:41:45.831Z,73.35
2024-02-28T11:44:13.489Z,73.51
2024-02-28T11:46:41.049Z,73.02
2024-02-28T11:49:08.656Z,72.75
2024-02-28T11:51:36.277Z,72.94
2024-02-28T11:54:03.925Z,72.87
2024-02-28T11:56:31.588Z,72.84
2024-02-28T11:58:59.140Z,73.36
2024-02-28T12:01:26.915Z,73.36
2024-02-28T12:03:54.718Z,73.53
2024-02-28T12:06:22.459Z,73.68
2024-02-28T12:08:50.302Z,73.78
2024-02-28T12:11:17.929Z,73.93
2024-02-28T12:13:47.338Z,74.04
2024-02-28T12:16:16.361Z,74.09
2024-02-28T12:18:44.163Z,73.95
2024-02-28T12:21:11.889Z,74.12
2024-02-28T12:23:39.556Z,74.22
2024-02-28T12:26:07.102Z,74.19
2024-02-28T12:28:34.668Z,74.27
2024-02-28T12:31:02.622Z,74.34
2024-02-28T12:33:30.455Z,74.45
2024-02-28T12:35:58.069Z,74.55
2024-02-28T12:38:25.920Z,74.81
2024-02-28T12:40:53.577Z,74.90
2024-02-28T12:43:21.141Z,75.04
2024-02-28T12:45:48.936Z,75.13
2024-02-28T12:48:16.589Z,75.30
2024-02-28T12:50:44.536Z,75.58
2024-02-28T12:53:12.202Z,75.74
2024-02-28T12:55:39.757Z,75.67
2024-02-28T12:58:07.442Z,75.74
2024-02-28T13:00:35.375Z,75.51
2024-02-28T13:03:03.162Z,75.42
2024-02-28T13:05:32.082Z,75.37
2024-02-28T13:08:00.323Z,75.55
2024-02-28T13:10:27.872Z,75.73
2024-02-28T13:12:55.702Z,75.87
2024-02-28T13:15:23.427Z,75.96
2024-02-28T13:17:51.161Z,76.03
2024-02-28T13:20:18.826Z,75.98
2024-02-28T13:22:46.383Z,76.02
2024-02-28T13:25:14.076Z,76.06
2024-02-28T13:27:41.625Z,75.95
2024-02-28T13:30:09.678Z,76.03
2024-02-28T13:32:37.261Z,76.24
2024-02-28T13:35:04.796Z,76.37
2024-02-28T13:37:32.154Z,76.45
2024-02-28T13:39:59.856Z,76.36
2024-02-28T13:42:27.595Z,76.34
2024-02-28T13:44:55.236Z,76.50
2024-02-28T13:47:22.828Z,76.64
2024-02-28T13:49:50.351Z,76.64
2024-02-28T13:52:18.380Z,76.71
2024-02-28T13:54:46.004Z,76.72
2024-02-28T13:57:13.654Z,76.70
2024-02-28T13:59:41.299Z,76.54
2024-02-28T14:02:09.008Z,76.68
2024-02-28T14:04:36.845Z,76.81
2024-02-28T14:07:04.731Z,76.86
2024-02-28T14:09:32.496Z,77.08
2024-02-28T14:12:00.135Z,76.89
2024-02-28T14:14:27.993Z,77.01
2024-02-28T14:16:55.657Z,77.07
2024-02-28T14:19:23.438Z,77.18
2024-02-28T14:21:50.986Z,77.18
2024-02-28T14:24:18.629Z,77.37
2024-02-28T14:26:46.237Z,77.54
2024-02-28T14:29:13.861Z,77.78
2024-02-28T14:31:41.522Z,77.75
2024-02-28T14:34:09.184Z,77.70
2024-02-28T14:36:37.285Z,77.71
2024-02-28T14:39:04.822Z,77.56
2024-02-28T14:41:32.465Z,77.53
2024-02-28T14:44:00.035Z,77.58
2024-02-28T14:46:27.685Z,77.78
2024-02-28T14:48:55.298Z,77.70
2024-02-28T14:51:23.016Z,77.80
2024-02-28T14:53:50.890Z,77.95
2024-02-28T14:56:18.541Z,78.00
2024-02-28T14:58:46.095Z,78.04
2024-02-28T15:01:13.858Z,77.93
2024-02-28T15:03:41.647Z,78.07
2024-02-28T15:06:09.384Z,78.08
2024-02-28T15:08:36.950Z,78.01
2024-02-28T15:11:04.698Z,78.07
2024-02-28T15:13:32.486Z,78.12
2024-02-28T15:16:00.419Z,78.16
2024-02-28T15:18:28.186Z,78.25
2024-02-28T15:20:57.688Z,78.18
2024-02-28T15:23:29.253Z,78.34
2024-02-28T15:25:58.484Z,78.33
2024-02-28T15:28:26.022Z,78.40
2024-02-28T15:30:53.767Z,78.33
2024-02-28T15:33:21.737Z,78.18
2024-02-28T15:35:49.422Z,78.30
2024-02-28T15:38:17.119Z,78.31
2024-02-28T15:40:44.842Z,78.27
2024-02-28T15:43:12.565Z,78.37
2024-02-28T15:45:40.216Z,78.42
2024-02-28T15:48:07.997Z,78.29
2024-02-28T15:50:35.687Z,78.43
2024-02-28T15:53:03.369Z,78.61
2024-02-28T15:55:31.323Z,78.70
2024-02-28T15:57:58.910Z,78.50
2024-02-28T16:00:26.559Z,78.54
2024-02-28T16:02:54.243Z,78.52
2024-02-28T16:05:21.867Z,78.35
2024-02-28T16:07:49.630Z,78.36
2024-02-28T16:10:17.179Z,78.35
2024-02-28T16:12:44.769Z,78.11
2024-02-28T16:15:12.648Z,78.26
2024-02-28T16:17:40.429Z,78.31
2024-02-28T16:20:08.038Z,78.39
2024-02-28T16:22:35.810Z,78.40
2024-02-28T16:25:03.560Z,78.55
2024-02-28T16:27:31.129Z,78.58
2024-02-28T16:29:58.687Z,78.57
2024-02-28T16:32:26.238Z,78.49
2024-02-28T16:34:53.807Z,78.58
2024-02-28T16:37:21.353Z,78.71
2024-02-28T16:39:50.397Z,78.79
2024-02-28T16:42:18.109Z,78.99
2024-02-28T16:44:45.676Z,78.95
2024-02-28T16:47:13.242Z,78.93
2024-02-28T16:49:40.904Z,79.03
2024-02-28T16:52:08.571Z,79.02
2024-02-28T16:54:36.361Z,78.90
2024-02-28T16:57:03.988Z,79.03
2024-02-28T16:59:31.951Z,79.01
2024-02-28T17:01:59.638Z,79.13
2024-02-28T17:04:27.398Z,79.02
2024-02-28T17:06:54.985Z,78.90
2024-02-28T17:09:22.833Z,79.02
2024-02-28T17:11:50.459Z,79.04
2024-02-28T17:14:18.120Z,79.14
2024-02-28T17:16:45.788Z,79.35
2024-02-28T17:19:13.382Z,79.33
2024-02-28T17:21:41.392Z,79.30
2024-02-28T17:24:09.075Z,79.29
2024-02-28T17:26:39.338Z,79.10
2024-02-28T17:29:09.057Z,79.17
2024-02-28T17:31:37.018Z,79.31
2024-02-28T17:34:04.678Z,79.47
2024-02-28T17:36:32.433Z,79.50
2024-02-28T17:39:00.058Z,79.42
2024-02-28T17:41:28.020Z,79.50
2024-02-28T17:43:55.586Z,79.47
2024-02-28T17:46:23.267Z,79.54
2024-02-28T17:48:50.819Z,79.61
2024-02-28T17:51:18.471Z,79.65
2024-02-28T17:53:46.033Z,79.49
2024-02-28T17:56:13.687Z,79.45
2024-02-28T17:58:41.250Z,79.48
2024-02-28T18:01:09.263Z,79.54
2024-02-28T18:03:37.020Z,79.20
2024-02-28T18:06:04.670Z,79.25
2024-02-28T18:08:32.405Z,79.43
2024-02-28T18:10:59.995Z,79.59
2024-02-28T18:13:27.721Z,79.35
2024-02-28T18:15:55.438Z,79.40
2024-02-28T18:18:23.229Z,79.50
2024-02-28T18:20:51.043Z,79.56
2024-02-28T18:23:24.641Z,79.46
2024-02-28T18:25:58.222Z,79.53
2024-02-28T18:28:25.771Z,79.31
2024-02-28T18:30:53.450Z,79.23
2024-02-28T18:33:21.159Z,79.26
2024-02-28T18:35:48.863Z,79.19
2024-02-28T18:38:16.561Z,79.18
2024-02-28T18:40:44.387Z,79.11
2024-02-28T18:43:11.965Z,78.94
2024-02-28T18:45:39.546Z,78.76
2024-02-28T18:48:07.257Z,78.87
2024-02-28T18:50:35.072Z,78.91
2024-02-28T18:53:02.590Z,78.86
2024-02-28T18:55:30.264Z,78.71
2024-02-28T18:57:57.932Z,78.81
2024-02-28T19:00:26.049Z,78.92
2024-02-28T19:02:53.858Z,78.91
2024-02-28T19:05:21.423Z,79.12
2024-02-28T19:07:49.073Z,79.24
2024-02-28T19:10:16.697Z,79.07
2024-02-28T19:12:44.527Z,79.21
2024-02-28T19:15:12.165Z,79.17
2024-02-28T19:17:39.556Z,79.04
2024-02-28T19:20:07.290Z,79.08
2024-02-28T19:22:34.845Z,79.02
2024-02-28T19:25:02.801Z,79.04
2024-02-28T19:27:30.697Z,79.01
2024-02-28T19:29:58.336Z,79.18
2024-02-28T19:32:25.924Z,79.02
2024-02-28T19:34:53.558Z,78.86
2024-02-28T19:37:21.224Z,78.91
2024-02-28T19:39:48.813Z,78.91
2024-02-28T19:42:16.337Z,78.92
2024-02-28T19:44:43.897Z,78.78
2024-02-28T19:47:11.546Z,78.90
2024-02-28T19:49:39.116Z,78.81
2024-02-28T19:52:06.759Z,78.73
2024-02-28T19:54:34.693Z,78.78
2024-02-28T19:57:02.416Z,78.64
2024-02-28T19:59:30.067Z,78.84
2024-02-28T20:01:57.805Z,78.89
2024-02-28T20:04:25.612Z,78.81
2024-02-28T20:06:53.155Z,78.65
2024-02-28T20:09:20.808Z,78.62
2024-02-28T20:11:48.394Z,78.34
2024-02-28T20:14:16.031Z,78.54
2024-02-28T20:16:43.600Z,78.47
2024-02-28T20:19:11.194Z,78.60
2024-02-28T20:21:38.932Z,78.68
2024-02-28T20:24:06.585Z,78.67
2024-02-28T20:26:34.129Z,78.82
2024-02-28T20:29:02.106Z,78.86
2024-02-28T20:31:29.654Z,78.77
2024-02-28T20:33:57.321Z,78.65
2024-02-28T20:36:25.118Z,78.56
2024-02-28T20:38:52.748Z,78.60
2024-02-28T20:41:20.412Z,78.59
2024-02-28T20:43:47.973Z,78.56
2024-02-28T20:46:15.673Z,78.72
2024-02-28T20:48:43.780Z,78.88
2024-02-28T20:51:11.461Z,78.84
2024-02-28T20:53:39.028Z,78.72
2024-02-28T20:56:06.679Z,78.72
2024-02-28T20:58:34.248Z,78.72
2024-02-28T21:01:01.942Z,78.71
2024-02-28T21:03:29.526Z,78.84
2024-02-28T21:05:57.532Z,78.94
2024-02-28T21:08:25.104Z,78.98
2024-02-28T21:10:52.826Z,78.81
2024-02-28T21:13:20.624Z,78.91
2024-02-28T21:15:48.210Z,78.90
2024-02-28T21:18:15.840Z,78.99
2024-02-28T21:20:43.406Z,78.86
2024-02-28T21:23:10.978Z,78.94
2024-02-28T21:25:38.527Z,79.11
2024-02-28T21:28:06.151Z,79.10
2024-02-28T21:30:34.021Z,79.07
2024-02-28T21:33:01.731Z,79.06
2024-02-28T21:35:29.364Z,79.13
2024-02-28T21:37:56.954Z,79.25
2024-02-28T21:40:24.489Z,79.18
2024-02-28T21:42:52.087Z,79.36
2024-02-28T21:45:19.719Z,79.35
2024-02-28T21:47:47.411Z,79.47
2024-02-28T21:50:15.022Z,79.56
2024-02-28T21:52:42.588Z,79.44
2024-02-28T21:55:10.202Z,79.43
2024-02-28T21:57:37.774Z,79.47
2024-02-28T22:00:05.464Z,79.58
2024-02-28T22:02:33.045Z,79.57
2024-02-28T22:05:00.706Z,79.62
2024-02-28T22:07:28.357Z,79.66
2024-02-28T22:09:56.298Z,79.74
2024-02-28T22:12:24.080Z,79.78
2024-02-28T22:14:51.639Z,79.70
2024-02-28T22:17:19.198Z,79.71
2024-02-28T22:19:46.752Z,79.56
2024-02-28T22:22:14.336Z,79.58
2024-02-28T22:24:42.169Z,79.54
2024-02-28T22:27:09.863Z,79.59
2024-02-28T22:29:37.506Z,79.67
2024-02-28T22:32:05.490Z,79.69
2024-02-28T22:34:33.151Z,80.00
2024-02-28T22:37:00.743Z,80.02
2024-02-28T22:39:28.787Z,79.83
2024-02-28T22:41:56.422Z,79.82
2024-02-28T22:44:23.995Z,79.92
2024-02-28T22:46:51.650Z,79.85
2024-02-28T22:49:19.234Z,79.89
2024-02-28T22:51:47.136Z,79.90
2024-02-28T22:54:14.831Z,79.76
2024-02-28T22:56:42.495Z,79.90
2024-02-28T22:59:10.153Z,79.79
2024-02-28T23:01:37.869Z,79.83
2024-02-28T23:04:05.713Z,79.53
2024-02-28T23:06:33.376Z,79.64
2024-02-28T23:09:02.253Z,79.59
2024-02-28T23:11:29.807Z,79.69
2024-02-28T23:13:57.756Z,79.69
2024-02-28T23:16:25.431Z,79.55
2024-02-28T23:18:53.040Z,79.53
2024-02-28T23:21:20.747Z,79.71
2024-02-28T23:23:48.310Z,79.65
2024-02-28T23:26:15.978Z,79.79
2024-02-28T23:28:43.649Z,79.67
2024-02-28T23:31:11.385Z,79.83
2024-02-28T23:33:39.182Z,80.15
2024-02-28T23:36:07.126Z,80.29
2024-02-28T23:38:34.683Z,80.20
2024-02-28T23:41:02.246Z,80.04
2024-02-28T23:43:29.913Z,80.19
2024-02-28T23:45:57.525Z,80.14
2024-02-28T23:48:25.221Z,80.27
2024-02-28T23:50:52.871Z,80.34
2024-02-28T23:53:20.999Z,80.24
2024-02-28T23:55:48.622Z,80.17
2024-02-28T23:58:16.355Z,80.07
